createdAt,value
2019-01-16T00:00:26.645Z,100906.68
2019-01-16T00:02:56.728Z,100909.30
2019-01-16T00:05:29.560Z,100910.59
2019-01-16T00:08:15.616Z,100900.63
2019-01-16T00:11:03.693Z,100892.38
2019-01-16T00:13:49.697Z,100894.13
2019-01-16T00:16:19.808Z,100890.65
2019-01-16T00:18:50.060Z,100883.70
2019-01-16T00:21:32.043Z,100886.30
2019-01-16T00:24:18.525Z,100885.01
2019-01-16T00:26:51.378Z,100882.82
2019-01-16T00:29:21.526Z,100870.25
2019-01-16T00:31:54.090Z,100880.66
2019-01-16T00:34:30.032Z,100875.89
2019-01-16T00:37:05.829Z,100874.14
2019-01-16T00:39:48.221Z,100870.23
2019-01-16T00:42:21.608Z,100866.78
2019-01-16T00:44:57.476Z,100866.79
2019-01-16T00:47:42.616Z,100855.95
2019-01-16T00:50:12.840Z,100875.03
2019-01-16T00:52:59.447Z,100867.23
2019-01-16T00:55:35.603Z,100864.63
2019-01-16T00:58:08.743Z,100867.23
2019-01-16T01:00:57.408Z,100862.44
2019-01-16T01:03:43.871Z,100861.14
2019-01-16T01:06:20.162Z,100858.97
2019-01-16T01:09:02.790Z,100856.81
2019-01-16T01:11:35.865Z,100854.22
2019-01-16T01:14:06.191Z,100854.65
2019-01-16T01:16:52.368Z,100855.50
2019-01-16T01:19:38.753Z,100852.89
2019-01-16T01:22:08.957Z,100846.83
2019-01-16T01:24:39.118Z,100851.59
2019-01-16T01:27:09.239Z,100845.11
2019-01-16T01:29:57.573Z,100847.69
2019-01-16T01:32:44.085Z,100842.48
2019-01-16T01:35:26.203Z,100844.67
2019-01-16T01:37:59.060Z,100839.03
2019-01-16T01:40:38.077Z,100845.09
2019-01-16T01:43:08.194Z,100842.95
2019-01-16T01:45:53.654Z,100837.31
2019-01-16T01:48:42.095Z,100842.05
2019-01-16T01:51:12.161Z,100836.87
2019-01-16T01:53:42.304Z,100832.98
2019-01-16T01:56:14.895Z,100818.23
2019-01-16T01:58:47.971Z,100825.17
2019-01-16T02:01:34.408Z,100827.32
2019-01-16T02:04:04.707Z,100834.69
2019-01-16T02:06:34.808Z,100829.92
2019-01-16T02:09:23.351Z,100839.47
2019-01-16T02:11:59.412Z,100832.52
2019-01-16T02:14:38.375Z,100824.72
2019-01-16T02:17:11.082Z,100822.12
2019-01-16T02:19:50.048Z,100825.17
2019-01-16T02:22:38.497Z,100823.42
2019-01-16T02:25:20.944Z,100813.02
2019-01-16T02:28:02.859Z,100818.67
2019-01-16T02:30:35.985Z,100818.22
2019-01-16T02:33:18.221Z,100814.31
2019-01-16T02:35:48.426Z,100819.09
2019-01-16T02:38:24.266Z,100813.03
2019-01-16T02:41:12.347Z,100806.09
2019-01-16T02:44:00.615Z,100806.97
2019-01-16T02:46:30.706Z,100797.88
2019-01-16T02:49:06.566Z,100803.94
2019-01-16T02:51:45.833Z,100795.69
2019-01-16T02:54:15.922Z,100795.25
2019-01-16T02:56:46.043Z,100784.43
2019-01-16T02:59:28.347Z,100798.30
2019-01-16T03:02:04.001Z,100787.45
2019-01-16T03:04:40.170Z,100799.59
2019-01-16T03:07:10.380Z,100794.41
2019-01-16T03:09:46.249Z,100786.61
2019-01-16T03:12:16.354Z,100786.17
2019-01-16T03:14:46.459Z,100784.42
2019-01-16T03:17:22.234Z,100783.98
2019-01-16T03:19:58.364Z,100780.08
2019-01-16T03:22:37.826Z,100772.73
2019-01-16T03:25:25.403Z,100770.13
2019-01-16T03:27:55.650Z,100768.83
2019-01-16T03:30:28.220Z,100763.20
2019-01-16T03:33:01.162Z,100761.02
2019-01-16T03:35:34.078Z,100753.25
2019-01-16T03:38:04.141Z,100745.44
2019-01-16T03:40:34.221Z,100743.27
2019-01-16T03:43:07.869Z,100736.33
2019-01-16T03:45:37.966Z,100741.55
2019-01-16T03:48:14.345Z,100736.32
2019-01-16T03:50:44.501Z,100733.29
2019-01-16T03:53:20.076Z,100728.95
2019-01-16T03:55:55.760Z,100723.34
2019-01-16T03:58:44.122Z,100711.17
2019-01-16T04:01:30.496Z,100715.50
2019-01-16T04:04:00.646Z,100704.67
2019-01-16T04:06:33.720Z,100700.36
2019-01-16T04:09:03.963Z,100694.70
2019-01-16T04:11:40.047Z,100694.70
2019-01-16T04:14:12.904Z,100688.64
2019-01-16T04:16:59.555Z,100686.92
2019-01-16T04:19:29.682Z,100679.55
2019-01-16T04:22:15.690Z,100685.63
2019-01-16T04:24:48.572Z,100679.53
2019-01-16T04:27:18.739Z,100673.91
2019-01-16T04:29:48.809Z,100676.09
2019-01-16T04:32:36.960Z,100673.48
2019-01-16T04:35:07.576Z,100682.16
2019-01-16T04:37:40.667Z,100670.89
2019-01-16T04:40:16.925Z,100659.17
2019-01-16T04:42:52.775Z,100662.22
2019-01-16T04:45:25.791Z,100652.69
2019-01-16T04:47:56.016Z,100654.84
2019-01-16T04:50:26.084Z,100650.08
2019-01-16T04:52:56.239Z,100652.67
2019-01-16T04:55:35.836Z,100647.47
2019-01-16T04:58:21.046Z,100643.16
2019-01-16T05:00:53.717Z,100652.69
2019-01-16T05:03:38.788Z,100647.06
2019-01-16T05:06:14.625Z,100638.83
2019-01-16T05:08:44.703Z,100624.52
2019-01-16T05:11:20.532Z,100624.08
2019-01-16T05:13:50.698Z,100623.23
2019-01-16T05:16:23.451Z,100626.26
2019-01-16T05:18:59.497Z,100622.78
2019-01-16T05:21:38.544Z,100624.95
2019-01-16T05:24:14.194Z,100615.84
2019-01-16T05:26:56.468Z,100611.94
2019-01-16T05:29:35.909Z,100619.32
2019-01-16T05:32:09.081Z,100611.06
2019-01-16T05:34:50.899Z,100606.75
2019-01-16T05:37:30.026Z,100608.05
2019-01-16T05:40:02.892Z,100604.58
2019-01-16T05:42:49.185Z,100604.14
2019-01-16T05:45:19.370Z,100601.98
2019-01-16T05:47:52.394Z,100595.48
2019-01-16T05:50:34.529Z,100606.28
2019-01-16T05:53:19.592Z,100605.87
2019-01-16T05:55:49.693Z,100611.94
2019-01-16T05:58:19.754Z,100603.69
2019-01-16T06:00:58.682Z,100603.27
2019-01-16T06:03:46.624Z,100598.94
2019-01-16T06:06:25.729Z,100595.89
2019-01-16T06:09:01.597Z,100592.84
2019-01-16T06:11:37.544Z,100584.20
2019-01-16T06:14:19.426Z,100598.05
2019-01-16T06:16:49.503Z,100590.70
2019-01-16T06:19:38.644Z,100591.12
2019-01-16T06:22:11.682Z,100584.62
2019-01-16T06:24:41.761Z,100595.03
2019-01-16T06:27:11.902Z,100584.62
2019-01-16T06:29:44.583Z,100585.50
2019-01-16T06:32:23.881Z,100578.98
2019-01-16T06:35:10.356Z,100583.77
2019-01-16T06:37:40.418Z,100578.56
2019-01-16T06:40:12.111Z,100573.78
2019-01-16T06:42:42.197Z,100575.96
2019-01-16T06:45:18.463Z,100576.83
2019-01-16T06:47:51.244Z,100569.03
2019-01-16T06:50:24.319Z,100565.98
2019-01-16T06:52:55.934Z,100566.00
2019-01-16T06:55:32.171Z,100560.80
2019-01-16T06:58:14.566Z,100562.53
2019-01-16T07:01:03.406Z,100552.99
2019-01-16T07:03:33.559Z,100558.22
2019-01-16T07:06:06.557Z,100559.94
2019-01-16T07:08:54.712Z,100562.96
2019-01-16T07:11:24.909Z,100567.73
2019-01-16T07:14:13.339Z,100563.86
2019-01-16T07:16:48.847Z,100562.11
2019-01-16T07:19:24.768Z,100569.91
2019-01-16T07:22:03.690Z,100556.91
2019-01-16T07:24:33.771Z,100559.11
2019-01-16T07:27:06.877Z,100551.72
2019-01-16T07:29:40.141Z,100564.30
2019-01-16T07:32:25.938Z,100564.30
2019-01-16T07:35:04.956Z,100566.45
2019-01-16T07:37:51.143Z,100565.14
2019-01-16T07:40:39.529Z,100569.92
2019-01-16T07:43:11.664Z,100561.70
2019-01-16T07:45:44.266Z,100565.17
2019-01-16T07:48:23.603Z,100572.53
2019-01-16T07:51:02.687Z,100568.20
2019-01-16T07:53:49.368Z,100569.50
2019-01-16T07:56:28.401Z,100576.88
2019-01-16T07:59:21.540Z,100569.07
2019-01-16T08:01:51.945Z,100567.35
2019-01-16T08:04:34.207Z,100578.61
2019-01-16T08:07:19.448Z,100565.59
2019-01-16T08:09:55.252Z,100560.42
2019-01-16T08:12:28.052Z,100576.00
2019-01-16T08:15:03.869Z,100573.42
2019-01-16T08:17:45.802Z,100573.84
2019-01-16T08:20:24.964Z,100585.13
2019-01-16T08:22:50.733Z,100582.08
2019-01-16T08:25:20.951Z,100589.87
2019-01-16T08:28:02.991Z,100578.17
2019-01-16T08:30:33.076Z,100573.41
2019-01-16T08:33:09.181Z,100566.48
2019-01-16T08:35:42.040Z,100573.41
2019-01-16T08:38:12.702Z,100572.98
2019-01-16T08:40:49.003Z,100567.78
2019-01-16T08:43:19.096Z,100573.84
2019-01-16T08:45:55.094Z,100566.47
2019-01-16T08:48:41.303Z,100564.73
2019-01-16T08:51:29.834Z,100569.06
2019-01-16T08:54:08.667Z,100562.59
2019-01-16T08:56:53.821Z,100563.02
2019-01-16T08:59:23.978Z,100558.69
2019-01-16T09:02:06.169Z,100570.36
2019-01-16T09:04:38.657Z,100572.11
2019-01-16T09:07:24.731Z,100565.18
2019-01-16T09:10:00.862Z,100566.05
2019-01-16T09:12:46.370Z,100566.47
2019-01-16T09:15:34.958Z,100565.18
2019-01-16T09:18:05.026Z,100565.62
2019-01-16T09:20:44.218Z,100555.64
2019-01-16T09:23:23.058Z,100549.14
2019-01-16T09:26:05.154Z,100544.39
2019-01-16T09:28:41.457Z,100554.34
2019-01-16T09:31:28.243Z,100544.38
2019-01-16T09:34:13.426Z,100540.08
2019-01-16T09:36:55.078Z,100528.80
2019-01-16T09:39:25.173Z,100528.37
2019-01-16T09:42:11.191Z,100522.70
2019-01-16T09:44:57.737Z,100529.67
2019-01-16T09:47:28.838Z,100531.39
2019-01-16T09:50:01.832Z,100513.64
2019-01-16T09:52:48.178Z,100522.75
2019-01-16T09:55:18.262Z,100505.41
2019-01-16T09:57:51.058Z,100511.05
2019-01-16T10:00:27.568Z,100520.58
2019-01-16T10:03:09.971Z,100523.17
2019-01-16T10:05:58.391Z,100511.89
2019-01-16T10:08:43.466Z,100502.81
2019-01-16T10:11:13.560Z,100504.13
2019-01-16T10:13:53.049Z,100509.77
2019-01-16T10:16:23.198Z,100508.02
2019-01-16T10:19:08.113Z,100509.31
2019-01-16T10:21:54.370Z,100498.49
2019-01-16T10:24:27.196Z,100506.70
2019-01-16T10:26:57.281Z,100498.03
2019-01-16T10:29:33.338Z,100489.36
2019-01-16T10:32:09.719Z,100488.07
2019-01-16T10:34:55.999Z,100492.38
2019-01-16T10:37:27.015Z,100486.70
2019-01-16T10:40:13.339Z,100487.59
2019-01-16T10:42:49.464Z,100480.21
2019-01-16T10:45:35.687Z,100474.97
2019-01-16T10:48:17.706Z,100464.13
2019-01-16T10:51:03.163Z,100459.35
2019-01-16T10:53:40.926Z,100454.13
2019-01-16T10:56:19.282Z,100447.63
2019-01-16T10:59:01.680Z,100437.64
2019-01-16T11:01:31.777Z,100435.89
2019-01-16T11:04:01.845Z,100434.19
2019-01-16T11:06:48.091Z,100425.96
2019-01-16T11:09:27.453Z,100412.11
2019-01-16T11:12:00.586Z,100410.36
2019-01-16T11:14:30.675Z,100403.01
2019-01-16T11:17:16.900Z,100406.48
2019-01-16T11:19:47.037Z,100402.16
2019-01-16T11:22:25.982Z,100399.53
2019-01-16T11:25:07.922Z,100390.45
2019-01-16T11:27:42.564Z,100391.73
2019-01-16T11:30:22.321Z,100387.86
2019-01-16T11:32:52.423Z,100382.69
2019-01-16T11:35:38.004Z,100379.20
2019-01-16T11:38:08.168Z,100380.96
2019-01-16T11:40:38.623Z,100370.58
2019-01-16T11:43:12.239Z,100366.26
2019-01-16T11:45:42.387Z,100357.16
2019-01-16T11:48:15.065Z,100371.91
2019-01-16T11:51:01.474Z,100370.58
2019-01-16T11:53:31.641Z,100367.53
2019-01-16T11:56:16.541Z,100355.83
2019-01-16T11:59:03.909Z,100358.85
2019-01-16T12:01:34.064Z,100342.86
2019-01-16T12:04:04.207Z,100345.91
2019-01-16T12:06:34.313Z,100336.38
2019-01-16T12:09:10.446Z,100332.06
2019-01-16T12:11:40.746Z,100314.29
2019-01-16T12:14:13.431Z,100319.48
2019-01-16T12:16:46.190Z,100319.52
2019-01-16T12:19:16.285Z,100314.77
2019-01-16T12:21:55.007Z,100307.81
2019-01-16T12:24:41.504Z,100295.70
2019-01-16T12:27:13.980Z,100286.14
2019-01-16T12:29:55.995Z,100282.70
2019-01-16T12:32:32.363Z,100279.22
2019-01-16T12:35:08.512Z,100266.22
2019-01-16T12:37:55.139Z,100262.75
2019-01-16T12:40:40.415Z,100256.67
2019-01-16T12:43:26.735Z,100253.62
2019-01-16T12:46:13.328Z,100248.42
2019-01-16T12:48:59.757Z,100247.97
2019-01-16T12:51:46.330Z,100243.19
2019-01-16T12:54:19.266Z,100249.66
2019-01-16T12:56:52.272Z,100238.02
2019-01-16T12:59:40.614Z,100236.69
2019-01-16T13:02:13.481Z,100241.43
2019-01-16T13:04:46.235Z,100222.77
2019-01-16T13:07:34.348Z,100226.25
2019-01-16T13:10:04.598Z,100218.91
2019-01-16T13:12:50.931Z,100198.95
2019-01-16T13:15:20.982Z,100190.73
2019-01-16T13:17:51.131Z,100196.35
2019-01-16T13:20:21.269Z,100194.67
2019-01-16T13:22:59.953Z,100190.34
2019-01-16T13:25:35.589Z,100185.15
2019-01-16T13:28:22.265Z,100181.67
2019-01-16T13:31:04.296Z,100177.34
2019-01-16T13:33:46.510Z,100174.33
2019-01-16T13:36:16.642Z,100165.23
2019-01-16T13:38:49.427Z,100163.47
2019-01-16T13:41:24.958Z,100157.39
2019-01-16T13:43:57.782Z,100153.91
2019-01-16T13:46:33.917Z,100138.31
2019-01-16T13:49:04.051Z,100142.20
2019-01-16T13:51:34.098Z,100135.70
2019-01-16T13:54:22.442Z,100119.65
2019-01-16T13:56:55.241Z,100117.93
2019-01-16T13:59:34.635Z,100103.20
2019-01-16T14:02:10.605Z,100107.45
2019-01-16T14:04:40.695Z,100106.98
2019-01-16T14:07:10.749Z,100105.22
2019-01-16T14:09:57.164Z,100092.22
2019-01-16T14:12:36.510Z,100098.30
2019-01-16T14:15:15.689Z,100095.27
2019-01-16T14:17:45.755Z,100089.62
2019-01-16T14:20:34.215Z,100093.10
2019-01-16T14:23:06.764Z,100109.62
2019-01-16T14:25:42.862Z,100093.18
2019-01-16T14:28:12.924Z,100083.20
2019-01-16T14:30:43.159Z,100068.48
2019-01-16T14:33:25.377Z,100068.90
2019-01-16T14:36:07.552Z,100064.59
2019-01-16T14:38:37.606Z,100060.27
2019-01-16T14:41:07.706Z,100058.55
2019-01-16T14:43:54.085Z,100051.22
2019-01-16T14:46:40.333Z,100050.76
2019-01-16T14:49:16.612Z,100048.57
2019-01-16T14:51:46.940Z,100043.38
2019-01-16T14:54:33.346Z,100028.23
2019-01-16T14:57:09.337Z,100036.87
2019-01-16T14:59:39.485Z,100030.41
2019-01-16T15:02:26.420Z,100030.79
2019-01-16T15:04:59.547Z,100026.42
2019-01-16T15:07:29.631Z,100026.47
2019-01-16T15:10:14.684Z,100022.52
2019-01-16T15:12:47.944Z,100028.60
2019-01-16T15:15:18.081Z,100025.17
2019-01-16T15:17:57.273Z,100019.13
2019-01-16T15:20:31.332Z,100017.41
2019-01-16T15:23:01.471Z,100020.06
2019-01-16T15:25:43.586Z,100017.05
2019-01-16T15:28:22.818Z,100016.16
2019-01-16T15:31:09.074Z,100005.81
2019-01-16T15:33:55.145Z,100003.21
2019-01-16T15:36:27.885Z,99997.13
2019-01-16T15:39:14.182Z,99995.46
2019-01-16T15:41:56.360Z,99982.09
2019-01-16T15:44:35.238Z,99976.91
2019-01-16T15:47:05.364Z,99968.73
2019-01-16T15:49:51.738Z,99958.34
2019-01-16T15:52:37.958Z,99964.01
2019-01-16T15:55:14.178Z,99963.59
2019-01-16T15:57:53.033Z,99964.05
2019-01-16T16:00:38.338Z,99962.30
2019-01-16T16:03:08.394Z,99959.28
2019-01-16T16:05:54.926Z,99950.23
2019-01-16T16:08:43.247Z,99942.44
2019-01-16T16:11:13.356Z,99941.18
2019-01-16T16:13:49.351Z,99936.41
2019-01-16T16:16:22.439Z,99938.17
2019-01-16T16:18:55.461Z,99929.08
2019-01-16T16:21:44.094Z,99926.94
2019-01-16T16:24:14.181Z,99926.48
2019-01-16T16:26:56.018Z,99919.57
2019-01-16T16:29:26.118Z,99922.20
2019-01-16T16:32:05.503Z,99920.91
2019-01-16T16:34:38.319Z,99919.19
2019-01-16T16:37:17.180Z,99918.73
2019-01-16T16:39:47.292Z,99912.66
2019-01-16T16:42:20.156Z,99912.70
2019-01-16T16:45:06.653Z,99915.75
2019-01-16T16:47:43.019Z,99916.64
2019-01-16T16:50:16.438Z,99910.19
2019-01-16T16:52:49.314Z,99908.91
2019-01-16T16:55:35.793Z,99906.77
2019-01-16T16:58:18.243Z,99902.50
2019-01-16T17:01:03.653Z,99912.47
2019-01-16T17:03:50.239Z,99898.19
2019-01-16T17:06:38.707Z,99907.28
2019-01-16T17:09:15.634Z,99901.25
2019-01-16T17:11:54.384Z,99896.52
2019-01-16T17:14:27.211Z,99893.50
2019-01-16T17:16:57.378Z,99887.44
2019-01-16T17:19:30.308Z,99889.19
2019-01-16T17:22:03.368Z,99877.09
2019-01-16T17:24:36.458Z,99875.37
2019-01-16T17:27:06.765Z,99878.38
2019-01-16T17:29:39.321Z,99884.45
2019-01-16T17:32:12.544Z,99873.66
2019-01-16T17:34:54.434Z,99867.58
2019-01-16T17:37:24.564Z,99871.48
2019-01-16T17:39:54.679Z,99874.53
2019-01-16T17:42:27.622Z,99872.82
2019-01-16T17:45:00.576Z,99864.19
2019-01-16T17:47:34.044Z,99858.16
2019-01-16T17:50:10.408Z,99865.50
2019-01-16T17:52:55.697Z,99861.09
2019-01-16T17:55:41.174Z,99860.17
2019-01-16T17:58:29.518Z,99860.62
2019-01-16T18:00:59.714Z,99851.95
2019-01-16T18:03:47.941Z,99851.03
2019-01-16T18:06:20.738Z,99848.42
2019-01-16T18:09:06.794Z,99845.84
2019-01-16T18:11:39.899Z,99838.92
2019-01-16T18:14:21.933Z,99822.04
2019-01-16T18:16:54.756Z,99831.97
2019-01-16T18:19:24.871Z,99834.56
2019-01-16T18:22:07.200Z,99835.02
2019-01-16T18:24:40.391Z,99833.27
2019-01-16T18:27:13.375Z,99840.16
2019-01-16T18:29:59.699Z,99842.77
2019-01-16T18:32:47.773Z,99834.97
2019-01-16T18:35:35.796Z,99824.16
2019-01-16T18:38:06.170Z,99828.06
2019-01-16T18:40:36.403Z,99843.59
2019-01-16T18:43:22.736Z,99839.23
2019-01-16T18:46:09.025Z,99814.56
2019-01-16T18:48:44.985Z,99826.67
2019-01-16T18:51:17.764Z,99815.86
2019-01-16T18:54:06.109Z,99812.84
2019-01-16T18:56:41.774Z,99813.27
2019-01-16T18:59:14.772Z,99832.28
2019-01-16T19:01:44.842Z,99825.83
2019-01-16T19:04:17.632Z,99818.03
2019-01-16T19:06:50.418Z,99808.06
2019-01-16T19:09:32.519Z,99810.20
2019-01-16T19:12:08.693Z,99822.72
2019-01-16T19:14:44.722Z,99799.80
2019-01-16T19:17:17.971Z,99807.12
2019-01-16T19:19:51.611Z,99794.61
2019-01-16T19:22:21.834Z,99790.34
2019-01-16T19:24:54.620Z,99771.70
2019-01-16T19:27:36.461Z,99789.00
2019-01-16T19:30:12.407Z,99774.30
2019-01-16T19:32:45.530Z,99765.22
2019-01-16T19:35:18.913Z,99769.56
2019-01-16T19:38:05.006Z,99767.86
2019-01-16T19:40:38.251Z,99758.30
2019-01-16T19:43:08.475Z,99767.39
2019-01-16T19:45:50.698Z,99767.80
2019-01-16T19:48:36.015Z,99758.71
2019-01-16T19:51:12.060Z,99763.91
2019-01-16T19:53:42.192Z,99744.42
2019-01-16T19:56:12.379Z,99742.25
2019-01-16T19:58:54.487Z,99746.15
2019-01-16T20:01:36.907Z,99738.31
2019-01-16T20:04:23.464Z,99742.25
2019-01-16T20:06:53.695Z,99741.41
2019-01-16T20:09:25.392Z,99746.61
2019-01-16T20:12:11.822Z,99741.00
2019-01-16T20:14:44.986Z,99741.37
2019-01-16T20:17:15.524Z,99740.48
2019-01-16T20:20:02.051Z,99737.01
2019-01-16T20:22:32.243Z,99727.08
2019-01-16T20:25:05.616Z,99720.11
2019-01-16T20:27:44.885Z,99726.14
2019-01-16T20:30:28.548Z,99722.28
2019-01-16T20:33:14.234Z,99726.61
2019-01-16T20:35:50.363Z,99720.94
2019-01-16T20:38:20.453Z,99699.33
2019-01-16T20:40:56.335Z,99704.47
2019-01-16T20:43:27.016Z,99702.75
2019-01-16T20:45:57.181Z,99709.66
2019-01-16T20:48:33.404Z,99704.45
2019-01-16T20:51:03.628Z,99703.59
2019-01-16T20:53:39.748Z,99710.14
2019-01-16T20:56:09.951Z,99689.82
2019-01-16T20:58:47.381Z,99692.42
2019-01-16T21:01:26.413Z,99698.50
2019-01-16T21:04:13.314Z,99697.16
2019-01-16T21:06:49.785Z,99705.36
2019-01-16T21:09:23.269Z,99706.66
2019-01-16T21:11:59.665Z,99707.53
2019-01-16T21:14:41.933Z,99700.16
2019-01-16T21:17:28.669Z,99691.08
2019-01-16T21:20:01.589Z,99689.82
2019-01-16T21:22:49.728Z,99681.56
2019-01-16T21:25:28.634Z,99685.88
2019-01-16T21:27:58.748Z,99671.59
2019-01-16T21:30:37.810Z,99672.48
2019-01-16T21:33:24.149Z,99672.47
2019-01-16T21:36:03.712Z,99668.09
2019-01-16T21:38:36.603Z,99669.39
2019-01-16T21:41:12.990Z,99661.17
2019-01-16T21:43:52.484Z,99665.52
2019-01-16T21:46:25.702Z,99646.08
2019-01-16T21:49:02.027Z,99650.39
2019-01-16T21:51:48.329Z,99647.74
2019-01-16T21:54:18.464Z,99637.81
2019-01-16T21:56:48.636Z,99639.52
2019-01-16T21:59:34.808Z,99643.44
2019-01-16T22:02:08.068Z,99644.70
2019-01-16T22:04:38.334Z,99657.70
2019-01-16T22:07:17.391Z,99651.16
2019-01-16T22:10:05.961Z,99650.73
2019-01-16T22:12:36.167Z,99648.97
2019-01-16T22:15:25.187Z,99645.13
2019-01-16T22:18:11.873Z,99641.22
2019-01-16T22:20:42.046Z,99656.82
2019-01-16T22:23:12.151Z,99651.63
2019-01-16T22:25:54.318Z,99634.73
2019-01-16T22:28:40.875Z,99642.99
2019-01-16T22:31:19.784Z,99643.82
2019-01-16T22:34:06.133Z,99639.45
2019-01-16T22:36:44.202Z,99638.58
2019-01-16T22:39:14.414Z,99636.86
2019-01-16T22:41:44.644Z,99608.75
2019-01-16T22:44:23.940Z,99638.58
2019-01-16T22:46:54.163Z,99632.07
2019-01-16T22:49:30.169Z,99633.38
2019-01-16T22:52:09.082Z,99631.20
2019-01-16T22:54:55.195Z,99629.08
2019-01-16T22:57:41.518Z,99618.69
2019-01-16T23:00:30.805Z,99621.75
2019-01-16T23:03:01.003Z,99613.97
2019-01-16T23:05:40.001Z,99608.84
2019-01-16T23:08:10.274Z,99601.09
2019-01-16T23:10:49.479Z,99611.92
2019-01-16T23:13:25.240Z,99607.66
2019-01-16T23:16:01.489Z,99610.68
2019-01-16T23:18:46.676Z,99626.27
2019-01-16T23:21:16.828Z,99613.76
2019-01-16T23:24:04.758Z,99604.73
2019-01-16T23:26:34.936Z,99606.55
2019-01-16T23:29:17.121Z,99601.86
2019-01-16T23:31:47.331Z,99603.61
2019-01-16T23:34:24.257Z,99605.39
2019-01-16T23:37:03.174Z,99617.56
2019-01-16T23:39:51.468Z,99603.33
2019-01-16T23:42:30.701Z,99614.59
2019-01-16T23:45:17.345Z,99618.08
2019-01-16T23:47:59.236Z,99606.00
2019-01-16T23:50:35.035Z,99600.86
2019-01-16T23:53:20.205Z,99612.59
2019-01-16T23:55:52.970Z,99602.70
2019-01-16T23:58:28.817Z,99602.27
